Saint Hilaire, Minnesota
Current Conditions -  °F | °C
As of 10:15 AM on Saturday 20 Dec 2014 (Local Time) from KTVF Reporting Station
Overcast Overcast  
Wind Chill: 18°   Ceiling: 500
Heat Index: 28°   Visibility: 2.5mi
Dew Point: 27°   Wind: 13mph
Humidity: 93%   Direction: 190°S
Pressure: 30.01"   Gusts: NA
Location:  48.01°N, 96.21°W
Report Text: KTVF 201615Z AUTO 19011KT 2 1/2SM OVC005 M02/M03 A3001 RMK AO1
Loading
Personal Weather Stations






























Interactive Weather Map New forecast layout! Learn more

10-Day Weather Forecast

Advertisements
Track Severe Weather on mobile